createdAt,value
2023-06-19T00:00:32.290Z,73.87
2023-06-19T00:01:34.625Z,74.18
2023-06-19T00:02:36.822Z,74.11
2023-06-19T00:03:39.147Z,74.33
2023-06-19T00:04:41.422Z,74.58
2023-06-19T00:05:43.567Z,73.80
2023-06-19T00:06:45.746Z,73.89
2023-06-19T00:07:47.903Z,73.99
2023-06-19T00:08:50.050Z,74.16
2023-06-19T00:09:52.271Z,74.37
2023-06-19T00:10:55.201Z,74.28
2023-06-19T00:11:57.396Z,74.38
2023-06-19T00:12:59.569Z,74.41
2023-06-19T00:14:02.191Z,74.29
2023-06-19T00:15:04.610Z,74.33
2023-06-19T00:16:06.800Z,74.37
2023-06-19T00:17:09.004Z,74.49
2023-06-19T00:18:11.844Z,74.36
2023-06-19T00:19:14.121Z,74.40
2023-06-19T00:20:16.476Z,74.59
2023-06-19T00:21:18.778Z,74.44
2023-06-19T00:22:21.063Z,74.32
2023-06-19T00:23:24.198Z,74.80
2023-06-19T00:24:26.391Z,74.28
2023-06-19T00:25:28.624Z,74.57
2023-06-19T00:26:30.737Z,74.32
2023-06-19T00:27:32.891Z,74.40
2023-06-19T00:28:35.055Z,74.65
2023-06-19T00:29:37.203Z,74.87
2023-06-19T00:30:39.403Z,74.94
2023-06-19T00:31:42.077Z,74.89
2023-06-19T00:32:51.123Z,75.36
2023-06-19T00:33:53.399Z,75.10
2023-06-19T00:34:55.851Z,74.84
2023-06-19T00:35:58.106Z,75.09
2023-06-19T00:37:00.320Z,74.72
2023-06-19T00:38:02.825Z,75.22
2023-06-19T00:39:05.015Z,75.40
2023-06-19T00:40:09.364Z,75.70
2023-06-19T00:41:11.742Z,75.65
2023-06-19T00:42:13.890Z,76.05
2023-06-19T00:43:16.055Z,76.06
2023-06-19T00:44:18.190Z,75.78
2023-06-19T00:45:20.456Z,76.16
2023-06-19T00:46:22.907Z,76.38
2023-06-19T00:47:26.818Z,76.80
2023-06-19T00:48:29.922Z,76.30
2023-06-19T00:49:32.529Z,76.01
2023-06-19T00:50:34.732Z,76.35
2023-06-19T00:51:36.926Z,76.31
2023-06-19T00:52:39.118Z,76.42
2023-06-19T00:53:41.367Z,76.57
2023-06-19T00:54:43.560Z,76.53
2023-06-19T00:55:45.906Z,76.77
2023-06-19T00:56:48.656Z,77.02
2023-06-19T00:57:51.144Z,76.97
2023-06-19T00:58:54.377Z,76.89
2023-06-19T00:59:56.640Z,76.15
2023-06-19T01:01:07.961Z,76.74
2023-06-19T01:02:12.293Z,76.56
2023-06-19T01:03:17.808Z,76.59
2023-06-19T01:04:21.245Z,76.63
2023-06-19T01:05:23.551Z,76.55
2023-06-19T01:06:29.326Z,76.77
2023-06-19T01:07:43.389Z,76.70
2023-06-19T01:08:57.407Z,76.96
2023-06-19T01:10:05.464Z,76.49
2023-06-19T01:11:18.301Z,76.65
2023-06-19T01:12:40.159Z,76.63
2023-06-19T01:14:01.299Z,76.43
2023-06-19T01:15:06.335Z,76.65
2023-06-19T01:16:08.652Z,76.61
2023-06-19T01:17:11.130Z,77.04
2023-06-19T01:18:13.569Z,76.56
2023-06-19T01:19:27.069Z,76.96
2023-06-19T01:20:29.912Z,76.80
2023-06-19T01:21:32.065Z,76.65
2023-06-19T01:22:34.213Z,76.53
2023-06-19T01:23:36.365Z,76.56
2023-06-19T01:24:38.553Z,76.60
2023-06-19T01:25:40.778Z,76.40
2023-06-19T01:26:43.163Z,76.58
2023-06-19T01:27:45.659Z,76.40
2023-06-19T01:28:48.062Z,76.79
2023-06-19T01:29:50.805Z,76.39
2023-06-19T01:30:53.253Z,76.98
2023-06-19T01:32:06.426Z,76.65
2023-06-19T01:33:17.913Z,76.77
2023-06-19T01:34:21.328Z,77.16
2023-06-19T01:35:27.832Z,76.48
2023-06-19T01:36:30.217Z,76.71
2023-06-19T01:37:34.471Z,76.97
2023-06-19T01:38:37.113Z,76.79
2023-06-19T01:39:40.488Z,77.35
2023-06-19T01:40:43.155Z,77.36
2023-06-19T01:41:45.672Z,77.92
2023-06-19T01:42:48.199Z,77.80
2023-06-19T01:43:50.493Z,78.05
2023-06-19T01:44:52.822Z,78.10
2023-06-19T01:45:55.117Z,78.18
2023-06-19T01:46:57.470Z,77.92
2023-06-19T01:47:59.856Z,77.98
2023-06-19T01:49:02.073Z,78.02
2023-06-19T01:50:04.342Z,78.23
2023-06-19T01:51:06.642Z,77.88
2023-06-19T01:52:09.745Z,77.94
2023-06-19T01:53:11.959Z,78.21
2023-06-19T01:54:14.123Z,78.59
2023-06-19T01:55:16.383Z,78.62
2023-06-19T01:56:18.588Z,79.04
2023-06-19T01:57:20.888Z,79.20
2023-06-19T01:58:23.064Z,78.83
2023-06-19T01:59:25.234Z,78.90
2023-06-19T02:00:27.383Z,79.20
2023-06-19T02:01:29.914Z,79.66
2023-06-19T02:02:32.160Z,79.02
2023-06-19T02:03:34.502Z,78.90
2023-06-19T02:04:36.717Z,79.30
2023-06-19T02:05:40.918Z,78.90
2023-06-19T02:06:43.326Z,79.23
2023-06-19T02:07:45.555Z,79.15
2023-06-19T02:08:49.351Z,78.37
2023-06-19T02:09:51.524Z,78.66
2023-06-19T02:10:53.687Z,78.95
2023-06-19T02:11:55.836Z,78.64
2023-06-19T02:12:57.988Z,79.31
2023-06-19T02:14:00.201Z,79.74
2023-06-19T02:15:02.369Z,79.84
2023-06-19T02:16:05.113Z,79.64
2023-06-19T02:17:07.557Z,79.50
2023-06-19T02:18:09.700Z,79.35
2023-06-19T02:19:12.390Z,79.72
2023-06-19T02:20:14.572Z,79.42
2023-06-19T02:21:17.084Z,79.31
2023-06-19T02:22:19.460Z,79.16
2023-06-19T02:23:21.718Z,79.23
2023-06-19T02:24:23.955Z,79.17
2023-06-19T02:25:26.163Z,78.81
2023-06-19T02:26:30.353Z,78.71
2023-06-19T02:27:50.838Z,79.16
2023-06-19T02:28:52.978Z,79.34
2023-06-19T02:29:55.116Z,79.58
2023-06-19T02:30:57.276Z,79.85
2023-06-19T02:31:59.391Z,79.61
2023-06-19T02:33:01.578Z,79.62
2023-06-19T02:34:04.979Z,78.99
2023-06-19T02:35:10.201Z,78.91
2023-06-19T02:36:12.458Z,79.17
2023-06-19T02:37:14.638Z,78.98
2023-06-19T02:38:16.902Z,79.40
2023-06-19T02:39:19.374Z,79.43
2023-06-19T02:40:21.769Z,78.91
2023-06-19T02:41:24.255Z,78.92
2023-06-19T02:42:26.448Z,79.04
2023-06-19T02:43:28.604Z,78.95
2023-06-19T02:44:30.711Z,78.33
2023-06-19T02:45:32.858Z,78.83
2023-06-19T02:46:35.100Z,79.24
2023-06-19T02:47:37.397Z,79.72
2023-06-19T02:48:39.565Z,79.54
2023-06-19T02:49:41.769Z,79.54
2023-06-19T02:50:43.921Z,79.79
2023-06-19T02:51:46.100Z,80.45
2023-06-19T02:52:48.561Z,80.59
2023-06-19T02:53:50.800Z,80.27
2023-06-19T02:54:53.011Z,79.93
2023-06-19T02:55:55.176Z,80.22
2023-06-19T02:56:57.336Z,79.85
2023-06-19T02:57:59.544Z,80.13
2023-06-19T02:59:01.676Z,80.56
2023-06-19T03:00:07.170Z,80.00
2023-06-19T03:01:09.977Z,80.51
2023-06-19T03:02:12.644Z,80.26
2023-06-19T03:03:14.922Z,80.30
2023-06-19T03:04:17.161Z,80.38
2023-06-19T03:05:19.304Z,80.13
2023-06-19T03:06:21.430Z,80.90
2023-06-19T03:07:23.586Z,80.64
2023-06-19T03:08:25.796Z,80.53
2023-06-19T03:09:28.029Z,80.57
2023-06-19T03:10:30.295Z,80.80
2023-06-19T03:11:32.430Z,80.60
2023-06-19T03:12:34.599Z,79.60
2023-06-19T03:13:50.852Z,79.42
2023-06-19T03:14:53.038Z,79.92
2023-06-19T03:15:55.266Z,80.01
2023-06-19T03:16:57.414Z,79.81
2023-06-19T03:17:59.752Z,79.53
2023-06-19T03:19:02.152Z,79.69
2023-06-19T03:20:06.966Z,80.67
2023-06-19T03:21:09.252Z,80.64
2023-06-19T03:22:11.385Z,79.54
2023-06-19T03:23:13.570Z,79.36
2023-06-19T03:24:15.782Z,79.41
2023-06-19T03:25:21.102Z,79.09
2023-06-19T03:26:23.552Z,78.49
2023-06-19T03:27:27.619Z,78.49
2023-06-19T03:28:29.960Z,78.41
2023-06-19T03:29:32.093Z,78.60
2023-06-19T03:30:34.268Z,78.45
2023-06-19T03:31:36.468Z,78.65
2023-06-19T03:32:38.941Z,78.56
2023-06-19T03:33:41.136Z,78.53
2023-06-19T03:34:43.459Z,78.70
2023-06-19T03:35:45.666Z,78.40
2023-06-19T03:36:47.837Z,78.36
2023-06-19T03:37:49.944Z,78.17
2023-06-19T03:38:54.902Z,77.95
2023-06-19T03:39:57.115Z,77.63
2023-06-19T03:40:59.275Z,77.55
2023-06-19T03:42:01.569Z,77.57
2023-06-19T03:43:03.837Z,77.55
2023-06-19T03:44:06.164Z,76.99
2023-06-19T03:45:08.696Z,77.02
2023-06-19T03:46:10.859Z,76.66
2023-06-19T03:47:13.010Z,76.76
2023-06-19T03:48:17.799Z,75.92
2023-06-19T03:49:20.132Z,75.90
2023-06-19T03:50:23.486Z,75.81
2023-06-19T03:51:30.205Z,75.88
2023-06-19T03:52:32.393Z,76.19
2023-06-19T03:53:34.548Z,76.17
2023-06-19T03:54:36.720Z,76.13
2023-06-19T03:55:38.933Z,76.43
2023-06-19T03:56:41.205Z,76.97
2023-06-19T03:57:43.347Z,76.97
2023-06-19T03:58:45.537Z,76.72
2023-06-19T03:59:48.350Z,77.47
2023-06-19T04:00:50.542Z,76.58
2023-06-19T04:01:52.709Z,76.70
2023-06-19T04:02:55.075Z,76.81
2023-06-19T04:03:57.371Z,77.11
2023-06-19T04:04:59.596Z,76.36
2023-06-19T04:06:01.752Z,76.55
2023-06-19T04:07:04.035Z,76.42
2023-06-19T04:08:06.205Z,76.37
2023-06-19T04:09:08.406Z,76.19
2023-06-19T04:10:12.576Z,76.54
2023-06-19T04:11:15.124Z,76.17
2023-06-19T04:12:17.325Z,76.30
2023-06-19T04:13:19.460Z,75.86
2023-06-19T04:14:24.128Z,76.14
2023-06-19T04:15:26.340Z,76.04
2023-06-19T04:16:28.587Z,76.08
2023-06-19T04:17:30.827Z,76.05
2023-06-19T04:18:32.987Z,76.31
2023-06-19T04:19:35.117Z,76.23
2023-06-19T04:20:37.338Z,75.92
2023-06-19T04:21:39.456Z,76.19
2023-06-19T04:22:42.369Z,75.96
2023-06-19T04:23:44.476Z,75.75
2023-06-19T04:24:46.642Z,76.31
2023-06-19T04:25:48.938Z,75.59
2023-06-19T04:26:51.087Z,75.98
2023-06-19T04:27:53.228Z,76.19
2023-06-19T04:28:55.474Z,76.14
2023-06-19T04:29:57.617Z,76.03
2023-06-19T04:31:02.329Z,75.91
2023-06-19T04:32:12.791Z,75.69
2023-06-19T04:33:15.135Z,75.26
2023-06-19T04:34:21.983Z,75.14
2023-06-19T04:35:24.922Z,75.26
2023-06-19T04:36:27.079Z,73.82
2023-06-19T04:37:29.251Z,74.27
2023-06-19T04:38:31.476Z,73.00
2023-06-19T04:39:33.674Z,73.15
2023-06-19T04:40:35.942Z,72.47
2023-06-19T04:41:39.686Z,73.38
2023-06-19T04:42:41.890Z,72.19
2023-06-19T04:43:44.027Z,71.89
2023-06-19T04:44:49.341Z,71.37
2023-06-19T04:45:51.525Z,71.21
2023-06-19T04:47:02.034Z,71.48
2023-06-19T04:48:04.734Z,70.77
2023-06-19T04:49:07.006Z,70.85
2023-06-19T04:50:09.408Z,70.44
2023-06-19T04:51:11.590Z,69.87
2023-06-19T04:52:13.748Z,70.00
2023-06-19T04:53:15.925Z,69.60
2023-06-19T04:54:18.079Z,69.29
2023-06-19T04:55:20.610Z,69.11
2023-06-19T04:56:22.828Z,69.13
2023-06-19T04:57:25.145Z,69.26
2023-06-19T04:58:27.435Z,69.36
2023-06-19T04:59:31.370Z,69.84
2023-06-19T05:00:33.523Z,70.10
2023-06-19T05:01:36.634Z,69.07
2023-06-19T05:02:38.858Z,69.41
2023-06-19T05:03:41.539Z,69.38
2023-06-19T05:04:44.734Z,69.45
2023-06-19T05:05:46.961Z,69.52
2023-06-19T05:06:52.024Z,69.38
2023-06-19T05:07:54.174Z,68.17
2023-06-19T05:08:56.368Z,66.69
2023-06-19T05:09:59.029Z,66.58
2023-06-19T05:11:01.378Z,66.13
2023-06-19T05:12:03.760Z,65.60
2023-06-19T05:13:05.928Z,65.46
2023-06-19T05:14:08.174Z,65.52
2023-06-19T05:15:10.785Z,65.33
2023-06-19T05:16:17.336Z,65.36
2023-06-19T05:17:19.770Z,65.42
2023-06-19T05:18:22.020Z,65.59
2023-06-19T05:19:24.251Z,66.05
2023-06-19T05:20:26.618Z,66.04
2023-06-19T05:21:28.985Z,65.78
2023-06-19T05:22:32.702Z,66.01
2023-06-19T05:23:34.985Z,65.90
2023-06-19T05:24:37.193Z,66.33
2023-06-19T05:25:39.488Z,66.34
2023-06-19T05:26:41.692Z,66.45
2023-06-19T05:27:43.895Z,66.36
2023-06-19T05:28:46.041Z,67.16
2023-06-19T05:29:48.156Z,67.80
2023-06-19T05:30:51.309Z,67.49
2023-06-19T05:31:53.493Z,66.35
2023-06-19T05:32:55.688Z,65.90
2023-06-19T05:33:59.738Z,66.92
2023-06-19T05:35:02.436Z,67.04
2023-06-19T05:36:04.846Z,67.32
2023-06-19T05:37:07.008Z,67.20
2023-06-19T05:38:09.218Z,67.50
2023-06-19T05:39:11.517Z,67.28
2023-06-19T05:40:13.875Z,67.04
2023-06-19T05:41:17.288Z,67.78
2023-06-19T05:42:19.542Z,67.10
2023-06-19T05:43:21.758Z,65.80
2023-06-19T05:44:23.907Z,65.50
2023-06-19T05:45:26.051Z,65.33
2023-06-19T05:46:28.423Z,65.25
2023-06-19T05:47:31.678Z,65.12
2023-06-19T05:48:33.868Z,65.37
2023-06-19T05:49:36.058Z,64.78
2023-06-19T05:50:38.169Z,64.54
2023-06-19T05:51:40.510Z,64.20
2023-06-19T05:52:44.387Z,63.99
2023-06-19T05:53:47.705Z,63.85
2023-06-19T05:54:49.853Z,63.50
2023-06-19T05:55:52.082Z,63.37
2023-06-19T05:56:54.464Z,63.39
2023-06-19T05:57:57.192Z,63.19
2023-06-19T05:58:59.394Z,63.78
2023-06-19T06:00:01.689Z,63.33
2023-06-19T06:01:04.243Z,62.94
2023-06-19T06:02:07.330Z,62.68
2023-06-19T06:03:09.486Z,62.71
2023-06-19T06:04:11.746Z,62.25
2023-06-19T06:05:14.022Z,62.18
2023-06-19T06:06:16.208Z,62.34
2023-06-19T06:07:18.376Z,62.54
2023-06-19T06:08:20.680Z,62.07
2023-06-19T06:09:22.991Z,62.19
2023-06-19T06:10:26.563Z,62.26
2023-06-19T06:11:28.994Z,61.79
2023-06-19T06:12:31.124Z,62.16
2023-06-19T06:13:33.277Z,62.29
2023-06-19T06:14:36.161Z,61.50
2023-06-19T06:15:38.311Z,60.83
2023-06-19T06:16:40.631Z,61.08
2023-06-19T06:17:43.111Z,60.03
2023-06-19T06:18:46.332Z,59.85
2023-06-19T06:19:48.565Z,59.90
2023-06-19T06:20:50.885Z,59.51
2023-06-19T06:21:53.108Z,60.70
2023-06-19T06:22:55.445Z,61.40
2023-06-19T06:23:57.621Z,60.46
2023-06-19T06:24:59.839Z,59.91
2023-06-19T06:26:04.875Z,60.80
2023-06-19T06:27:07.438Z,59.57
2023-06-19T06:28:09.639Z,58.72
2023-06-19T06:29:11.991Z,58.49
2023-06-19T06:30:14.373Z,58.16
2023-06-19T06:31:16.641Z,58.28
2023-06-19T06:32:19.417Z,57.95
2023-06-19T06:33:21.624Z,58.12
2023-06-19T06:34:23.916Z,58.52
2023-06-19T06:35:26.051Z,58.24
2023-06-19T06:36:36.290Z,58.36
2023-06-19T06:37:39.426Z,58.04
2023-06-19T06:38:41.563Z,57.61
2023-06-19T06:39:43.742Z,57.56
2023-06-19T06:40:46.059Z,57.89
2023-06-19T06:41:48.201Z,58.41
2023-06-19T06:42:50.572Z,57.75
2023-06-19T06:43:53.423Z,57.72
2023-06-19T06:44:55.562Z,57.82
2023-06-19T06:45:57.849Z,57.20
2023-06-19T06:47:00.162Z,57.11
2023-06-19T06:48:02.446Z,57.57
2023-06-19T06:49:04.696Z,57.47
2023-06-19T06:50:08.320Z,56.95
2023-06-19T06:51:11.725Z,55.99
2023-06-19T06:52:14.409Z,55.94
2023-06-19T06:53:16.604Z,54.99
2023-06-19T06:54:18.767Z,54.64
2023-06-19T06:55:20.988Z,55.41
2023-06-19T06:56:23.124Z,55.15
2023-06-19T06:57:25.309Z,54.72
2023-06-19T06:58:28.463Z,54.09
2023-06-19T06:59:30.684Z,54.32
2023-06-19T07:00:32.894Z,54.58
2023-06-19T07:01:35.183Z,55.32
2023-06-19T07:02:39.014Z,53.94
2023-06-19T07:03:41.276Z,54.11
2023-06-19T07:04:43.456Z,53.88
2023-06-19T07:05:45.764Z,54.05
2023-06-19T07:06:48.106Z,52.86
2023-06-19T07:07:50.235Z,53.81
2023-06-19T07:08:52.442Z,52.34
2023-06-19T07:09:54.715Z,51.85
2023-06-19T07:10:56.859Z,52.71
2023-06-19T07:11:59.065Z,51.72
2023-06-19T07:13:01.299Z,51.82
2023-06-19T07:14:03.872Z,52.34
2023-06-19T07:15:06.412Z,53.15
2023-06-19T07:16:09.133Z,51.58
2023-06-19T07:17:11.376Z,50.79
2023-06-19T07:18:13.843Z,51.01
2023-06-19T07:19:16.120Z,50.69
2023-06-19T07:20:18.323Z,50.76
2023-06-19T07:21:20.543Z,50.79
2023-06-19T07:22:22.713Z,49.77
2023-06-19T07:23:24.946Z,50.15
2023-06-19T07:24:27.178Z,50.72
2023-06-19T07:25:29.500Z,50.29
2023-06-19T07:26:32.057Z,49.59
2023-06-19T07:27:34.305Z,49.69
2023-06-19T07:28:37.503Z,49.58
2023-06-19T07:29:39.681Z,49.19
2023-06-19T07:30:42.336Z,48.74
2023-06-19T07:31:44.580Z,48.76
2023-06-19T07:32:46.818Z,48.97
2023-06-19T07:33:49.075Z,48.84
2023-06-19T07:34:51.248Z,48.65
2023-06-19T07:35:53.387Z,48.58
2023-06-19T07:36:55.528Z,48.01
2023-06-19T07:37:57.695Z,48.86
2023-06-19T07:38:59.871Z,48.22
2023-06-19T07:40:02.036Z,48.43
2023-06-19T07:41:04.160Z,47.70
2023-06-19T07:42:06.444Z,47.77
2023-06-19T07:43:08.748Z,47.84
2023-06-19T07:44:10.903Z,47.44
2023-06-19T07:45:13.907Z,45.94
2023-06-19T07:46:16.713Z,45.98
2023-06-19T07:47:19.857Z,45.79
2023-06-19T07:48:24.646Z,46.00
2023-06-19T07:49:26.832Z,45.84
2023-06-19T07:50:29.333Z,46.98
2023-06-19T07:51:32.153Z,45.50
2023-06-19T07:52:35.220Z,45.42
2023-06-19T07:53:37.381Z,45.86
2023-06-19T07:54:58.277Z,46.19
2023-06-19T07:56:00.565Z,45.84
2023-06-19T07:57:03.006Z,46.09
2023-06-19T07:58:05.135Z,46.27
2023-06-19T07:59:07.268Z,46.51
2023-06-19T08:00:12.740Z,46.08
2023-06-19T08:01:15.019Z,46.13
2023-06-19T08:02:17.800Z,45.75
2023-06-19T08:03:20.154Z,45.18
2023-06-19T08:04:22.504Z,45.06
2023-06-19T08:05:24.860Z,44.57
2023-06-19T08:06:27.070Z,44.67
2023-06-19T08:07:29.237Z,45.02
2023-06-19T08:08:31.417Z,44.55
2023-06-19T08:09:34.184Z,44.61
2023-06-19T08:10:36.324Z,44.85
2023-06-19T08:11:38.516Z,46.23
2023-06-19T08:12:43.269Z,46.69
2023-06-19T08:13:45.395Z,44.38
2023-06-19T08:14:47.583Z,43.21
2023-06-19T08:15:49.798Z,42.62
2023-06-19T08:16:52.011Z,42.47
2023-06-19T08:17:54.213Z,42.87
2023-06-19T08:18:56.425Z,42.59
2023-06-19T08:19:58.594Z,42.21
2023-06-19T08:21:00.794Z,41.96
2023-06-19T08:22:03.778Z,40.98
2023-06-19T08:23:06.900Z,41.05
2023-06-19T08:24:09.176Z,40.96
2023-06-19T08:25:11.588Z,42.62
2023-06-19T08:26:13.732Z,41.68
2023-06-19T08:27:16.442Z,41.30
2023-06-19T08:28:18.620Z,40.70
2023-06-19T08:29:20.865Z,40.56
2023-06-19T08:30:23.388Z,40.13
2023-06-19T08:31:28.593Z,38.71
2023-06-19T08:32:30.858Z,38.64
2023-06-19T08:33:35.818Z,38.40
2023-06-19T08:34:39.229Z,39.64
2023-06-19T08:35:41.486Z,39.32
2023-06-19T08:36:43.673Z,40.00
2023-06-19T08:37:45.821Z,39.92
2023-06-19T08:38:50.445Z,40.15
2023-06-19T08:39:52.608Z,39.80
2023-06-19T08:40:56.460Z,40.51
2023-06-19T08:41:58.700Z,39.82
2023-06-19T08:43:00.819Z,40.27
2023-06-19T08:44:04.386Z,40.38
2023-06-19T08:45:08.180Z,39.31
2023-06-19T08:46:16.120Z,39.29
2023-06-19T08:47:18.379Z,38.36
2023-06-19T08:48:21.912Z,38.83
2023-06-19T08:49:24.182Z,39.53
2023-06-19T08:50:27.241Z,40.20
2023-06-19T08:51:31.543Z,39.37
2023-06-19T08:52:33.736Z,39.52
2023-06-19T08:53:38.905Z,38.14
2023-06-19T08:54:44.918Z,39.04
2023-06-19T08:55:47.682Z,38.86
2023-06-19T08:56:49.966Z,37.69
2023-06-19T08:57:53.800Z,38.23
2023-06-19T08:58:55.974Z,37.75
2023-06-19T08:59:58.236Z,38.12
2023-06-19T09:01:00.608Z,38.04
2023-06-19T09:02:03.891Z,38.71
2023-06-19T09:03:13.905Z,38.35
2023-06-19T09:04:16.776Z,38.57
2023-06-19T09:05:20.185Z,37.21
2023-06-19T09:06:22.494Z,37.41
2023-06-19T09:07:24.783Z,37.49
2023-06-19T09:08:27.011Z,37.50
2023-06-19T09:09:29.313Z,36.87
2023-06-19T09:10:31.984Z,37.67
2023-06-19T09:11:34.152Z,36.92
2023-06-19T09:12:36.780Z,37.21
2023-06-19T09:13:39.187Z,38.24
2023-06-19T09:14:43.770Z,38.45
2023-06-19T09:15:46.384Z,37.58
2023-06-19T09:16:48.652Z,37.26
2023-06-19T09:18:07.223Z,36.38
2023-06-19T09:19:09.503Z,37.04
2023-06-19T09:20:12.720Z,38.18
2023-06-19T09:21:19.637Z,35.85
2023-06-19T09:22:22.884Z,35.84
2023-06-19T09:23:25.888Z,36.66
2023-06-19T09:24:35.856Z,35.34
2023-06-19T09:25:54.387Z,36.42
2023-06-19T09:27:10.288Z,35.16
2023-06-19T09:28:26.524Z,34.59
2023-06-19T09:29:28.690Z,34.37
2023-06-19T09:30:30.845Z,33.09
2023-06-19T09:31:34.899Z,32.82
2023-06-19T09:32:37.280Z,32.15
2023-06-19T09:33:40.703Z,33.01
2023-06-19T09:34:42.940Z,30.32
2023-06-19T09:35:45.488Z,27.86
2023-06-19T09:36:47.660Z,29.44
2023-06-19T09:37:50.280Z,28.34
2023-06-19T09:38:53.744Z,28.60
2023-06-19T09:40:00.438Z,27.88
2023-06-19T09:41:04.065Z,27.88
2023-06-19T09:42:10.618Z,27.61
2023-06-19T09:43:13.368Z,27.54
2023-06-19T09:44:16.260Z,26.79
2023-06-19T09:45:20.081Z,27.92
2023-06-19T09:46:23.178Z,27.95
2023-06-19T09:47:26.698Z,27.17
2023-06-19T09:48:30.873Z,26.63
2023-06-19T09:49:33.658Z,27.04
2023-06-19T09:50:38.797Z,28.18
2023-06-19T09:51:43.107Z,27.72
2023-06-19T09:52:45.732Z,28.64
2023-06-19T09:53:52.003Z,28.41
2023-06-19T09:54:55.526Z,28.39
2023-06-19T09:55:57.849Z,28.96
2023-06-19T09:57:01.322Z,28.97
2023-06-19T09:58:04.185Z,27.31
2023-06-19T09:59:10.483Z,28.34
2023-06-19T10:00:14.104Z,28.00
2023-06-19T10:01:19.672Z,26.78
2023-06-19T10:02:22.978Z,27.08
2023-06-19T10:03:33.115Z,28.00
2023-06-19T10:04:50.652Z,25.63
2023-06-19T10:05:59.913Z,25.56
2023-06-19T10:07:02.225Z,25.25
2023-06-19T10:08:06.004Z,26.03
2023-06-19T10:09:11.269Z,26.63
2023-06-19T10:10:24.799Z,25.77
2023-06-19T10:11:28.555Z,25.15
2023-06-19T10:12:45.039Z,25.03
2023-06-19T10:13:47.243Z,26.76
2023-06-19T10:14:52.256Z,28.00
2023-06-19T10:15:54.689Z,25.44
2023-06-19T10:16:56.875Z,26.71
2023-06-19T10:18:04.109Z,26.57
2023-06-19T10:19:14.803Z,27.07
2023-06-19T10:20:24.610Z,25.91
2023-06-19T10:21:27.013Z,26.57
2023-06-19T10:22:32.492Z,26.15
2023-06-19T10:23:38.403Z,26.80
2023-06-19T10:24:50.620Z,26.97
2023-06-19T10:25:55.650Z,26.73
2023-06-19T10:27:02.226Z,27.45
2023-06-19T10:28:08.389Z,27.01
2023-06-19T10:29:18.165Z,26.98
2023-06-19T10:30:21.209Z,26.16
2023-06-19T10:31:24.138Z,26.36
2023-06-19T10:32:26.308Z,26.80
2023-06-19T10:33:30.393Z,26.02
2023-06-19T10:34:36.247Z,24.91
2023-06-19T10:35:42.368Z,26.24
2023-06-19T10:36:44.760Z,25.41
2023-06-19T10:37:46.940Z,24.92
2023-06-19T10:38:49.214Z,24.95
2023-06-19T10:39:51.409Z,24.81
2023-06-19T10:40:53.679Z,25.51
2023-06-19T10:41:55.829Z,26.49
2023-06-19T10:42:57.989Z,25.55
2023-06-19T10:44:01.374Z,26.62
2023-06-19T10:45:08.140Z,26.67
2023-06-19T10:46:10.431Z,27.19
2023-06-19T10:47:12.722Z,26.21
2023-06-19T10:48:23.181Z,25.83
2023-06-19T10:49:25.443Z,27.28
2023-06-19T10:50:27.661Z,27.48
2023-06-19T10:51:29.935Z,27.92
2023-06-19T10:52:32.319Z,25.99
2023-06-19T10:53:34.933Z,26.28
2023-06-19T10:54:37.114Z,26.20
2023-06-19T10:55:39.294Z,26.61
2023-06-19T10:56:41.954Z,26.86
2023-06-19T10:57:47.408Z,26.49
2023-06-19T10:58:49.712Z,24.28
2023-06-19T10:59:52.462Z,23.67
2023-06-19T11:00:54.694Z,24.70
2023-06-19T11:01:56.847Z,25.44
2023-06-19T11:02:59.799Z,25.95
2023-06-19T11:04:04.618Z,26.28
2023-06-19T11:05:07.381Z,26.46
2023-06-19T11:06:09.564Z,23.93
2023-06-19T11:07:11.698Z,23.84
2023-06-19T11:08:19.675Z,24.07
2023-06-19T11:09:22.657Z,25.52
2023-06-19T11:10:27.026Z,25.09
2023-06-19T11:11:46.493Z,25.08
2023-06-19T11:12:48.647Z,25.39
2023-06-19T11:13:50.873Z,26.49
2023-06-19T11:14:53.240Z,24.58
2023-06-19T11:15:55.398Z,24.40
2023-06-19T11:16:57.621Z,24.53
2023-06-19T11:18:01.098Z,23.67
2023-06-19T11:19:03.357Z,23.54
2023-06-19T11:20:11.321Z,24.26
2023-06-19T11:21:13.467Z,24.61
2023-06-19T11:22:15.784Z,24.43
2023-06-19T11:23:28.348Z,24.65
2023-06-19T11:24:31.128Z,24.33
2023-06-19T11:25:40.788Z,23.63
2023-06-19T11:26:50.359Z,23.68
2023-06-19T11:27:53.273Z,24.45
2023-06-19T11:28:55.806Z,26.82
2023-06-19T11:30:01.067Z,25.39
2023-06-19T11:31:04.653Z,27.97
2023-06-19T11:32:24.079Z,25.88
2023-06-19T11:33:26.332Z,26.33
2023-06-19T11:34:37.674Z,26.33
2023-06-19T11:35:40.448Z,27.71
2023-06-19T11:36:43.482Z,27.01
2023-06-19T11:37:45.654Z,27.10
2023-06-19T11:38:48.186Z,27.94
2023-06-19T11:39:52.034Z,27.88
2023-06-19T11:40:55.793Z,28.33
2023-06-19T11:42:00.415Z,28.44
2023-06-19T11:43:02.638Z,29.25
2023-06-19T11:44:06.057Z,28.44
2023-06-19T11:45:09.395Z,27.67
2023-06-19T11:46:11.641Z,24.80
2023-06-19T11:47:13.871Z,23.83
2023-06-19T11:48:23.288Z,24.36
2023-06-19T11:49:26.179Z,23.44
2023-06-19T11:50:29.145Z,22.95
2023-06-19T11:51:31.764Z,24.84
2023-06-19T11:52:33.953Z,24.23
2023-06-19T11:53:36.295Z,24.46
2023-06-19T11:54:38.452Z,23.65
2023-06-19T11:55:40.626Z,24.30
2023-06-19T11:56:42.913Z,22.85
2023-06-19T11:57:45.162Z,22.75
2023-06-19T11:58:47.397Z,22.15
2023-06-19T11:59:49.591Z,22.22
2023-06-19T12:00:51.838Z,24.16
2023-06-19T12:01:54.304Z,22.91
2023-06-19T12:02:58.497Z,23.44
2023-06-19T12:04:02.047Z,22.57
2023-06-19T12:05:04.533Z,23.02
2023-06-19T12:06:06.663Z,22.67
2023-06-19T12:07:09.082Z,22.31
2023-06-19T12:08:11.313Z,21.66
2023-06-19T12:09:13.546Z,20.38
2023-06-19T12:10:15.733Z,19.80
2023-06-19T12:11:17.928Z,20.52
2023-06-19T12:12:20.046Z,19.02
2023-06-19T12:13:22.207Z,20.41
2023-06-19T12:14:25.718Z,21.35
2023-06-19T12:15:27.947Z,22.27
2023-06-19T12:16:30.160Z,23.02
2023-06-19T12:17:32.571Z,22.93
2023-06-19T12:18:34.910Z,22.65
2023-06-19T12:19:37.154Z,24.67
2023-06-19T12:20:39.358Z,25.00
2023-06-19T12:21:43.069Z,24.15
2023-06-19T12:22:45.530Z,23.83
2023-06-19T12:23:47.671Z,23.81
2023-06-19T12:24:49.813Z,25.76
2023-06-19T12:25:51.981Z,25.79
2023-06-19T12:26:54.161Z,26.53
2023-06-19T12:27:56.329Z,26.18
2023-06-19T12:28:58.490Z,25.43
2023-06-19T12:30:00.659Z,27.12
2023-06-19T12:31:04.621Z,26.22
2023-06-19T12:32:07.469Z,25.22
2023-06-19T12:33:09.736Z,25.89
2023-06-19T12:34:28.857Z,26.21
2023-06-19T12:35:32.324Z,27.10
2023-06-19T12:36:34.555Z,27.27
2023-06-19T12:37:36.853Z,27.64
2023-06-19T12:38:39.777Z,27.62
2023-06-19T12:39:42.895Z,28.96
2023-06-19T12:40:45.209Z,27.17
2023-06-19T12:41:47.421Z,28.38
2023-06-19T12:42:51.522Z,25.67
2023-06-19T12:43:53.759Z,25.45
2023-06-19T12:44:55.899Z,24.68
2023-06-19T12:45:58.253Z,23.04
2023-06-19T12:47:01.643Z,23.63
2023-06-19T12:48:04.067Z,22.31
2023-06-19T12:49:06.526Z,22.23
2023-06-19T12:50:09.253Z,21.96
2023-06-19T12:51:11.517Z,21.52
2023-06-19T12:52:13.646Z,23.03
2023-06-19T12:53:15.804Z,23.48
2023-06-19T12:54:18.007Z,23.67
2023-06-19T12:55:20.171Z,23.70
2023-06-19T12:56:22.368Z,25.78
2023-06-19T12:57:25.172Z,25.33
2023-06-19T12:58:27.405Z,24.96
2023-06-19T12:59:30.629Z,26.52
2023-06-19T13:00:32.827Z,26.18
2023-06-19T13:01:35.085Z,27.66
2023-06-19T13:02:38.112Z,26.79
2023-06-19T13:03:40.477Z,26.44
2023-06-19T13:04:42.715Z,26.00
2023-06-19T13:05:44.975Z,26.30
2023-06-19T13:06:47.234Z,25.74
2023-06-19T13:07:49.436Z,26.42
2023-06-19T13:08:51.790Z,26.22
2023-06-19T13:09:53.964Z,26.66
2023-06-19T13:10:56.146Z,26.13
2023-06-19T13:11:58.308Z,26.26
2023-06-19T13:13:00.484Z,26.35
2023-06-19T13:14:02.788Z,26.36
2023-06-19T13:15:06.207Z,26.35
2023-06-19T13:16:08.433Z,26.07
2023-06-19T13:17:10.724Z,26.45
2023-06-19T13:18:13.112Z,29.02
2023-06-19T13:19:16.377Z,28.63
2023-06-19T13:20:18.584Z,29.33
2023-06-19T13:21:21.460Z,29.39
2023-06-19T13:22:25.008Z,29.05
2023-06-19T13:23:27.376Z,29.26
2023-06-19T13:24:29.522Z,28.45
2023-06-19T13:25:33.778Z,29.38
2023-06-19T13:26:35.914Z,29.59
2023-06-19T13:27:37.989Z,27.68
2023-06-19T13:28:40.126Z,29.36
2023-06-19T13:29:42.514Z,29.14
2023-06-19T13:30:44.715Z,29.38
2023-06-19T13:31:47.363Z,28.66
2023-06-19T13:32:49.561Z,28.30
2023-06-19T13:33:51.728Z,27.01
2023-06-19T13:34:54.028Z,26.16